sensor_id;sensor_type;location;lat;lon;timestamp;P1;durP1;ratioP1;P2;durP2;ratioP2
29044;SDS011;16133;49.486;12.176;2023-06-26T00:01:43;11.38;;;7.18;;
29044;SDS011;16133;49.486;12.176;2023-06-26T00:04:09;11.90;;;6.88;;
29044;SDS011;16133;49.486;12.176;2023-06-26T00:06:39;11.80;;;7.22;;
29044;SDS011;16133;49.486;12.176;2023-06-26T00:09:05;9.95;;;6.93;;
29044;SDS011;16133;49.486;12.176;2023-06-26T00:11:31;10.95;;;6.88;;
29044;SDS011;16133;49.486;12.176;2023-06-26T00:13:58;10.48;;;6.30;;
29044;SDS011;16133;49.486;12.176;2023-06-26T00:16:25;12.20;;;6.97;;
29044;SDS011;16133;49.486;12.176;2023-06-26T00:18:51;10.40;;;6.55;;
29044;SDS011;16133;49.486;12.176;2023-06-26T00:21:16;11.25;;;7.10;;
29044;SDS011;16133;49.486;12.176;2023-06-26T00:23:41;10.68;;;6.70;;
29044;SDS011;16133;49.486;12.176;2023-06-26T00:26:07;11.60;;;7.10;;
29044;SDS011;16133;49.486;12.176;2023-06-26T00:28:34;11.50;;;7.57;;
29044;SDS011;16133;49.486;12.176;2023-06-26T00:30:59;14.98;;;8.00;;
29044;SDS011;16133;49.486;12.176;2023-06-26T00:33:25;11.55;;;7.07;;
29044;SDS011;16133;49.486;12.176;2023-06-26T00:35:50;11.07;;;7.40;;
29044;SDS011;16133;49.486;12.176;2023-06-26T00:38:15;14.23;;;9.05;;
29044;SDS011;16133;49.486;12.176;2023-06-26T00:40:42;12.15;;;8.38;;
29044;SDS011;16133;49.486;12.176;2023-06-26T00:43:08;13.25;;;8.57;;
29044;SDS011;16133;49.486;12.176;2023-06-26T00:45:33;12.73;;;7.93;;
29044;SDS011;16133;49.486;12.176;2023-06-26T00:47:59;11.88;;;8.10;;
29044;SDS011;16133;49.486;12.176;2023-06-26T00:50:24;11.60;;;7.93;;
29044;SDS011;16133;49.486;12.176;2023-06-26T00:52:50;12.85;;;8.10;;
29044;SDS011;16133;49.486;12.176;2023-06-26T00:55:15;13.38;;;9.35;;
29044;SDS011;16133;49.486;12.176;2023-06-26T00:57:40;11.63;;;7.93;;
29044;SDS011;16133;49.486;12.176;2023-06-26T01:00:07;12.95;;;7.78;;
29044;SDS011;16133;49.486;12.176;2023-06-26T01:02:33;12.35;;;7.30;;
29044;SDS011;16133;49.486;12.176;2023-06-26T01:04:59;13.27;;;7.90;;
29044;SDS011;16133;49.486;12.176;2023-06-26T01:07:31;10.68;;;6.97;;
29044;SDS011;16133;49.486;12.176;2023-06-26T01:09:59;12.02;;;7.38;;
29044;SDS011;16133;49.486;12.176;2023-06-26T01:12:25;12.48;;;8.02;;
29044;SDS011;16133;49.486;12.176;2023-06-26T01:14:51;12.88;;;7.93;;
29044;SDS011;16133;49.486;12.176;2023-06-26T01:17:16;10.65;;;6.82;;
29044;SDS011;16133;49.486;12.176;2023-06-26T01:19:42;12.00;;;8.05;;
29044;SDS011;16133;49.486;12.176;2023-06-26T01:27:50;11.63;;;7.65;;
29044;SDS011;16133;49.486;12.176;2023-06-26T01:30:18;12.02;;;8.23;;
29044;SDS011;16133;49.486;12.176;2023-06-26T01:32:45;12.82;;;7.88;;
29044;SDS011;16133;49.486;12.176;2023-06-26T01:35:12;9.65;;;7.20;;
29044;SDS011;16133;49.486;12.176;2023-06-26T01:37:39;12.23;;;8.02;;
29044;SDS011;16133;49.486;12.176;2023-06-26T01:40:05;12.20;;;8.00;;
29044;SDS011;16133;49.486;12.176;2023-06-26T01:42:31;12.57;;;8.10;;
29044;SDS011;16133;49.486;12.176;2023-06-26T01:45:06;11.88;;;7.68;;
29044;SDS011;16133;49.486;12.176;2023-06-26T01:47:37;14.30;;;9.13;;
29044;SDS011;16133;49.486;12.176;2023-06-26T01:50:06;12.85;;;8.80;;
29044;SDS011;16133;49.486;12.176;2023-06-26T01:58:01;12.30;;;8.25;;
29044;SDS011;16133;49.486;12.176;2023-06-26T02:00:27;12.95;;;8.73;;
29044;SDS011;16133;49.486;12.176;2023-06-26T02:02:53;13.15;;;8.52;;
29044;SDS011;16133;49.486;12.176;2023-06-26T02:05:19;13.43;;;8.55;;
29044;SDS011;16133;49.486;12.176;2023-06-26T02:07:44;12.85;;;8.15;;
29044;SDS011;16133;49.486;12.176;2023-06-26T02:10:09;13.38;;;8.60;;
29044;SDS011;16133;49.486;12.176;2023-06-26T02:12:36;13.35;;;8.82;;
29044;SDS011;16133;49.486;12.176;2023-06-26T02:15:02;13.80;;;8.88;;
29044;SDS011;16133;49.486;12.176;2023-06-26T02:17:29;12.20;;;8.55;;
29044;SDS011;16133;49.486;12.176;2023-06-26T02:19:54;14.35;;;9.30;;
29044;SDS011;16133;49.486;12.176;2023-06-26T02:22:20;15.60;;;9.90;;
29044;SDS011;16133;49.486;12.176;2023-06-26T02:24:45;13.70;;;8.63;;
29044;SDS011;16133;49.486;12.176;2023-06-26T02:27:10;14.10;;;8.95;;
29044;SDS011;16133;49.486;12.176;2023-06-26T02:29:36;15.05;;;9.15;;
29044;SDS011;16133;49.486;12.176;2023-06-26T02:32:02;13.68;;;8.57;;
29044;SDS011;16133;49.486;12.176;2023-06-26T02:34:27;14.05;;;8.75;;
29044;SDS011;16133;49.486;12.176;2023-06-26T02:36:53;16.42;;;9.68;;
29044;SDS011;16133;49.486;12.176;2023-06-26T02:39:21;15.18;;;8.80;;
29044;SDS011;16133;49.486;12.176;2023-06-26T02:41:47;14.13;;;9.18;;
29044;SDS011;16133;49.486;12.176;2023-06-26T02:44:12;15.00;;;9.27;;
29044;SDS011;16133;49.486;12.176;2023-06-26T02:46:39;12.50;;;8.38;;
29044;SDS011;16133;49.486;12.176;2023-06-26T02:49:05;15.40;;;9.40;;
29044;SDS011;16133;49.486;12.176;2023-06-26T02:51:34;14.05;;;9.02;;
29044;SDS011;16133;49.486;12.176;2023-06-26T02:53:59;14.32;;;9.77;;
29044;SDS011;16133;49.486;12.176;2023-06-26T02:56:25;15.18;;;9.48;;
29044;SDS011;16133;49.486;12.176;2023-06-26T02:58:53;15.50;;;9.90;;
29044;SDS011;16133;49.486;12.176;2023-06-26T03:01:22;16.08;;;9.20;;
29044;SDS011;16133;49.486;12.176;2023-06-26T03:03:47;17.02;;;10.48;;
29044;SDS011;16133;49.486;12.176;2023-06-26T03:06:13;16.42;;;10.07;;
29044;SDS011;16133;49.486;12.176;2023-06-26T03:08:39;14.95;;;9.82;;
29044;SDS011;16133;49.486;12.176;2023-06-26T03:11:05;14.77;;;9.35;;
29044;SDS011;16133;49.486;12.176;2023-06-26T03:13:31;16.40;;;10.50;;
29044;SDS011;16133;49.486;12.176;2023-06-26T03:15:57;14.35;;;9.82;;
29044;SDS011;16133;49.486;12.176;2023-06-26T03:18:23;13.57;;;8.90;;
29044;SDS011;16133;49.486;12.176;2023-06-26T03:20:48;14.82;;;9.52;;
29044;SDS011;16133;49.486;12.176;2023-06-26T03:23:14;16.10;;;9.77;;
29044;SDS011;16133;49.486;12.176;2023-06-26T03:25:39;12.93;;;8.73;;
29044;SDS011;16133;49.486;12.176;2023-06-26T03:28:04;15.90;;;9.50;;
29044;SDS011;16133;49.486;12.176;2023-06-26T03:30:30;14.43;;;9.95;;
29044;SDS011;16133;49.486;12.176;2023-06-26T03:32:56;15.30;;;9.75;;
29044;SDS011;16133;49.486;12.176;2023-06-26T03:35:22;13.60;;;9.88;;
29044;SDS011;16133;49.486;12.176;2023-06-26T03:37:48;15.98;;;9.90;;
29044;SDS011;16133;49.486;12.176;2023-06-26T03:40:13;15.68;;;10.20;;
29044;SDS011;16133;49.486;12.176;2023-06-26T03:42:39;14.40;;;9.48;;
29044;SDS011;16133;49.486;12.176;2023-06-26T03:45:04;18.17;;;10.23;;
29044;SDS011;16133;49.486;12.176;2023-06-26T03:47:30;15.55;;;9.77;;
29044;SDS011;16133;49.486;12.176;2023-06-26T03:49:55;14.98;;;9.68;;
29044;SDS011;16133;49.486;12.176;2023-06-26T03:52:21;14.98;;;9.38;;
29044;SDS011;16133;49.486;12.176;2023-06-26T03:54:46;15.88;;;10.65;;
29044;SDS011;16133;49.486;12.176;2023-06-26T03:57:13;16.88;;;10.05;;
29044;SDS011;16133;49.486;12.176;2023-06-26T03:59:39;15.40;;;9.65;;
29044;SDS011;16133;49.486;12.176;2023-06-26T04:02:04;16.27;;;9.98;;
29044;SDS011;16133;49.486;12.176;2023-06-26T04:04:30;15.20;;;10.05;;
29044;SDS011;16133;49.486;12.176;2023-06-26T04:06:55;15.40;;;10.32;;
29044;SDS011;16133;49.486;12.176;2023-06-26T04:09:20;17.98;;;10.00;;
29044;SDS011;16133;49.486;12.176;2023-06-26T04:11:46;16.35;;;10.32;;
29044;SDS011;16133;49.486;12.176;2023-06-26T04:14:14;17.45;;;10.57;;
29044;SDS011;16133;49.486;12.176;2023-06-26T04:16:40;15.38;;;9.90;;
29044;SDS011;16133;49.486;12.176;2023-06-26T04:19:05;17.10;;;10.55;;
29044;SDS011;16133;49.486;12.176;2023-06-26T04:21:30;15.25;;;9.45;;
29044;SDS011;16133;49.486;12.176;2023-06-26T04:23:56;13.88;;;8.80;;
29044;SDS011;16133;49.486;12.176;2023-06-26T04:26:21;14.57;;;9.90;;
29044;SDS011;16133;49.486;12.176;2023-06-26T04:28:47;14.70;;;9.57;;
29044;SDS011;16133;49.486;12.176;2023-06-26T04:31:13;13.55;;;8.70;;
29044;SDS011;16133;49.486;12.176;2023-06-26T04:33:38;12.82;;;8.82;;
29044;SDS011;16133;49.486;12.176;2023-06-26T04:36:04;13.23;;;9.15;;
29044;SDS011;16133;49.486;12.176;2023-06-26T04:38:31;14.07;;;8.88;;
29044;SDS011;16133;49.486;12.176;2023-06-26T04:40:57;13.48;;;8.75;;
29044;SDS011;16133;49.486;12.176;2023-06-26T04:43:23;14.18;;;8.15;;
29044;SDS011;16133;49.486;12.176;2023-06-26T04:45:48;15.75;;;9.43;;
29044;SDS011;16133;49.486;12.176;2023-06-26T04:48:13;14.18;;;8.73;;
29044;SDS011;16133;49.486;12.176;2023-06-26T04:50:39;15.05;;;8.65;;
29044;SDS011;16133;49.486;12.176;2023-06-26T04:53:05;15.68;;;9.02;;
29044;SDS011;16133;49.486;12.176;2023-06-26T04:55:30;10.40;;;7.75;;
29044;SDS011;16133;49.486;12.176;2023-06-26T04:57:56;10.48;;;7.38;;
29044;SDS011;16133;49.486;12.176;2023-06-26T05:00:21;11.35;;;7.65;;
29044;SDS011;16133;49.486;12.176;2023-06-26T05:02:47;11.82;;;8.32;;
29044;SDS011;16133;49.486;12.176;2023-06-26T05:05:13;9.52;;;7.10;;
29044;SDS011;16133;49.486;12.176;2023-06-26T05:07:38;12.23;;;7.80;;
29044;SDS011;16133;49.486;12.176;2023-06-26T05:10:06;8.02;;;6.00;;
29044;SDS011;16133;49.486;12.176;2023-06-26T05:12:32;9.45;;;6.60;;
29044;SDS011;16133;49.486;12.176;2023-06-26T05:14:58;8.05;;;6.00;;
29044;SDS011;16133;49.486;12.176;2023-06-26T05:17:24;9.48;;;6.75;;
29044;SDS011;16133;49.486;12.176;2023-06-26T05:19:49;8.00;;;6.13;;
29044;SDS011;16133;49.486;12.176;2023-06-26T05:22:14;10.02;;;6.22;;
29044;SDS011;16133;49.486;12.176;2023-06-26T05:24:42;8.13;;;6.20;;
29044;SDS011;16133;49.486;12.176;2023-06-26T05:27:11;6.05;;;5.03;;
29044;SDS011;16133;49.486;12.176;2023-06-26T05:29:44;6.90;;;4.80;;
29044;SDS011;16133;49.486;12.176;2023-06-26T05:32:09;6.90;;;5.60;;
29044;SDS011;16133;49.486;12.176;2023-06-26T05:34:36;6.47;;;5.47;;
29044;SDS011;16133;49.486;12.176;2023-06-26T05:37:02;6.10;;;5.30;;
29044;SDS011;16133;49.486;12.176;2023-06-26T05:39:29;6.72;;;5.70;;
29044;SDS011;16133;49.486;12.176;2023-06-26T05:41:54;6.93;;;5.32;;
29044;SDS011;16133;49.486;12.176;2023-06-26T05:44:21;9.43;;;5.70;;
29044;SDS011;16133;49.486;12.176;2023-06-26T05:46:46;6.22;;;5.35;;
29044;SDS011;16133;49.486;12.176;2023-06-26T05:49:12;5.35;;;4.75;;
29044;SDS011;16133;49.486;12.176;2023-06-26T05:51:37;5.90;;;5.30;;
29044;SDS011;16133;49.486;12.176;2023-06-26T05:54:03;7.18;;;5.10;;
29044;SDS011;16133;49.486;12.176;2023-06-26T05:56:29;6.13;;;5.38;;
29044;SDS011;16133;49.486;12.176;2023-06-26T05:58:55;6.00;;;5.40;;
29044;SDS011;16133;49.486;12.176;2023-06-26T06:01:22;6.07;;;5.45;;
29044;SDS011;16133;49.486;12.176;2023-06-26T06:03:48;6.80;;;5.68;;
29044;SDS011;16133;49.486;12.176;2023-06-26T06:06:13;5.85;;;5.10;;
29044;SDS011;16133;49.486;12.176;2023-06-26T06:08:39;6.18;;;4.88;;
29044;SDS011;16133;49.486;12.176;2023-06-26T06:11:05;5.90;;;5.05;;
29044;SDS011;16133;49.486;12.176;2023-06-26T06:13:30;5.75;;;5.05;;
29044;SDS011;16133;49.486;12.176;2023-06-26T06:15:55;6.10;;;5.50;;
29044;SDS011;16133;49.486;12.176;2023-06-26T06:18:21;6.60;;;5.65;;
29044;SDS011;16133;49.486;12.176;2023-06-26T06:20:46;6.00;;;5.32;;
29044;SDS011;16133;49.486;12.176;2023-06-26T06:23:12;7.13;;;5.57;;
29044;SDS011;16133;49.486;12.176;2023-06-26T06:25:38;6.50;;;5.90;;
29044;SDS011;16133;49.486;12.176;2023-06-26T06:28:04;6.25;;;5.43;;
29044;SDS011;16133;49.486;12.176;2023-06-26T06:30:30;6.32;;;5.38;;
29044;SDS011;16133;49.486;12.176;2023-06-26T06:32:56;8.73;;;6.45;;
29044;SDS011;16133;49.486;12.176;2023-06-26T06:35:21;6.57;;;5.95;;
29044;SDS011;16133;49.486;12.176;2023-06-26T06:37:46;6.13;;;5.43;;
29044;SDS011;16133;49.486;12.176;2023-06-26T06:40:12;7.03;;;6.32;;
29044;SDS011;16133;49.486;12.176;2023-06-26T06:42:38;9.65;;;6.25;;
29044;SDS011;16133;49.486;12.176;2023-06-26T06:45:04;8.13;;;5.70;;
29044;SDS011;16133;49.486;12.176;2023-06-26T06:47:31;9.25;;;6.25;;
29044;SDS011;16133;49.486;12.176;2023-06-26T06:49:57;7.32;;;6.50;;
29044;SDS011;16133;49.486;12.176;2023-06-26T06:52:22;8.65;;;6.07;;
29044;SDS011;16133;49.486;12.176;2023-06-26T06:54:51;7.78;;;6.63;;
29044;SDS011;16133;49.486;12.176;2023-06-26T06:57:24;8.00;;;5.90;;
29044;SDS011;16133;49.486;12.176;2023-06-26T06:59:50;7.38;;;6.00;;
29044;SDS011;16133;49.486;12.176;2023-06-26T07:02:19;9.85;;;6.78;;
29044;SDS011;16133;49.486;12.176;2023-06-26T07:04:44;8.98;;;6.80;;
29044;SDS011;16133;49.486;12.176;2023-06-26T07:07:10;8.43;;;6.30;;
29044;SDS011;16133;49.486;12.176;2023-06-26T07:09:37;8.88;;;6.28;;
29044;SDS011;16133;49.486;12.176;2023-06-26T07:12:03;9.45;;;6.30;;
29044;SDS011;16133;49.486;12.176;2023-06-26T07:14:29;11.60;;;7.95;;
29044;SDS011;16133;49.486;12.176;2023-06-26T07:16:54;7.82;;;6.15;;
29044;SDS011;16133;49.486;12.176;2023-06-26T07:19:19;9.85;;;6.80;;
29044;SDS011;16133;49.486;12.176;2023-06-26T07:21:45;11.00;;;6.43;;
29044;SDS011;16133;49.486;12.176;2023-06-26T07:24:11;8.20;;;6.05;;
29044;SDS011;16133;49.486;12.176;2023-06-26T07:26:36;9.18;;;6.72;;
29044;SDS011;16133;49.486;12.176;2023-06-26T07:29:02;8.38;;;6.47;;
29044;SDS011;16133;49.486;12.176;2023-06-26T07:31:27;9.10;;;6.35;;
29044;SDS011;16133;49.486;12.176;2023-06-26T07:33:53;9.52;;;6.50;;
29044;SDS011;16133;49.486;12.176;2023-06-26T07:36:18;9.75;;;7.28;;
29044;SDS011;16133;49.486;12.176;2023-06-26T07:38:44;13.45;;;7.22;;
29044;SDS011;16133;49.486;12.176;2023-06-26T07:41:09;9.65;;;7.25;;
29044;SDS011;16133;49.486;12.176;2023-06-26T07:43:34;9.57;;;6.90;;
29044;SDS011;16133;49.486;12.176;2023-06-26T07:46:00;7.55;;;6.53;;
29044;SDS011;16133;49.486;12.176;2023-06-26T07:48:25;9.88;;;6.78;;
29044;SDS011;16133;49.486;12.176;2023-06-26T07:50:51;8.18;;;6.50;;
29044;SDS011;16133;49.486;12.176;2023-06-26T07:53:16;9.85;;;6.80;;
29044;SDS011;16133;49.486;12.176;2023-06-26T07:55:42;10.10;;;6.45;;
29044;SDS011;16133;49.486;12.176;2023-06-26T07:58:08;10.48;;;6.90;;
29044;SDS011;16133;49.486;12.176;2023-06-26T08:00:34;8.40;;;6.07;;
29044;SDS011;16133;49.486;12.176;2023-06-26T08:02:59;9.82;;;7.18;;
29044;SDS011;16133;49.486;12.176;2023-06-26T08:05:25;10.48;;;7.20;;
29044;SDS011;16133;49.486;12.176;2023-06-26T08:07:50;8.68;;;6.72;;
29044;SDS011;16133;49.486;12.176;2023-06-26T08:10:15;10.32;;;6.75;;
29044;SDS011;16133;49.486;12.176;2023-06-26T08:12:41;9.32;;;6.53;;
29044;SDS011;16133;49.486;12.176;2023-06-26T08:15:09;11.10;;;6.35;;
29044;SDS011;16133;49.486;12.176;2023-06-26T08:17:36;9.35;;;6.60;;
29044;SDS011;16133;49.486;12.176;2023-06-26T08:20:03;10.05;;;6.72;;
29044;SDS011;16133;49.486;12.176;2023-06-26T08:22:29;9.13;;;6.25;;
29044;SDS011;16133;49.486;12.176;2023-06-26T08:24:54;7.40;;;5.80;;
29044;SDS011;16133;49.486;12.176;2023-06-26T08:27:19;8.15;;;5.55;;
29044;SDS011;16133;49.486;12.176;2023-06-26T08:29:45;9.27;;;5.93;;
29044;SDS011;16133;49.486;12.176;2023-06-26T08:32:10;8.13;;;6.15;;
29044;SDS011;16133;49.486;12.176;2023-06-26T08:34:35;9.60;;;5.47;;
29044;SDS011;16133;49.486;12.176;2023-06-26T08:37:01;7.35;;;5.90;;
29044;SDS011;16133;49.486;12.176;2023-06-26T08:39:26;10.52;;;6.10;;
29044;SDS011;16133;49.486;12.176;2023-06-26T08:41:52;7.32;;;5.60;;
29044;SDS011;16133;49.486;12.176;2023-06-26T08:44:17;7.82;;;5.38;;
29044;SDS011;16133;49.486;12.176;2023-06-26T08:46:43;7.70;;;5.80;;
29044;SDS011;16133;49.486;12.176;2023-06-26T08:49:32;9.38;;;5.68;;
29044;SDS011;16133;49.486;12.176;2023-06-26T08:52:23;8.43;;;6.38;;
29044;SDS011;16133;49.486;12.176;2023-06-26T08:54:54;9.63;;;5.85;;
29044;SDS011;16133;49.486;12.176;2023-06-26T08:57:22;9.38;;;6.60;;
29044;SDS011;16133;49.486;12.176;2023-06-26T08:59:48;7.22;;;5.50;;
29044;SDS011;16133;49.486;12.176;2023-06-26T09:02:14;10.90;;;6.65;;
29044;SDS011;16133;49.486;12.176;2023-06-26T09:04:40;8.85;;;6.20;;
29044;SDS011;16133;49.486;12.176;2023-06-26T09:07:06;9.00;;;6.63;;
29044;SDS011;16133;49.486;12.176;2023-06-26T09:09:32;8.65;;;6.38;;
29044;SDS011;16133;49.486;12.176;2023-06-26T09:11:58;8.93;;;5.30;;
29044;SDS011;16133;49.486;12.176;2023-06-26T09:14:23;9.15;;;5.68;;
29044;SDS011;16133;49.486;12.176;2023-06-26T09:16:49;10.23;;;6.75;;
29044;SDS011;16133;49.486;12.176;2023-06-26T09:19:15;10.38;;;5.85;;
29044;SDS011;16133;49.486;12.176;2023-06-26T09:21:41;6.88;;;5.63;;
29044;SDS011;16133;49.486;12.176;2023-06-26T09:24:08;7.72;;;5.40;;
29044;SDS011;16133;49.486;12.176;2023-06-26T09:26:38;8.30;;;5.57;;
29044;SDS011;16133;49.486;12.176;2023-06-26T09:29:05;8.32;;;5.82;;
29044;SDS011;16133;49.486;12.176;2023-06-26T09:31:31;9.25;;;6.72;;
29044;SDS011;16133;49.486;12.176;2023-06-26T09:33:58;8.18;;;6.22;;
29044;SDS011;16133;49.486;12.176;2023-06-26T09:36:26;7.30;;;5.90;;
29044;SDS011;16133;49.486;12.176;2023-06-26T09:38:53;10.55;;;5.78;;
29044;SDS011;16133;49.486;12.176;2023-06-26T09:41:18;11.52;;;6.63;;
29044;SDS011;16133;49.486;12.176;2023-06-26T09:43:47;8.32;;;5.97;;
29044;SDS011;16133;49.486;12.176;2023-06-26T09:46:16;11.10;;;6.60;;
29044;SDS011;16133;49.486;12.176;2023-06-26T09:48:43;11.77;;;6.82;;
29044;SDS011;16133;49.486;12.176;2023-06-26T09:51:09;14.68;;;6.00;;
29044;SDS011;16133;49.486;12.176;2023-06-26T09:53:38;9.13;;;6.53;;
29044;SDS011;16133;49.486;12.176;2023-06-26T09:56:06;8.40;;;6.25;;
29044;SDS011;16133;49.486;12.176;2023-06-26T09:58:32;7.97;;;5.82;;
29044;SDS011;16133;49.486;12.176;2023-06-26T10:00:58;9.02;;;5.82;;
29044;SDS011;16133;49.486;12.176;2023-06-26T10:03:24;9.13;;;6.22;;
29044;SDS011;16133;49.486;12.176;2023-06-26T10:05:50;7.97;;;6.00;;
29044;SDS011;16133;49.486;12.176;2023-06-26T10:08:16;9.55;;;6.70;;
29044;SDS011;16133;49.486;12.176;2023-06-26T10:10:42;9.80;;;6.07;;
29044;SDS011;16133;49.486;12.176;2023-06-26T10:13:19;10.27;;;6.85;;
29044;SDS011;16133;49.486;12.176;2023-06-26T10:15:47;9.18;;;6.53;;
29044;SDS011;16133;49.486;12.176;2023-06-26T10:18:15;8.70;;;6.18;;
29044;SDS011;16133;49.486;12.176;2023-06-26T10:20:42;8.95;;;6.38;;
29044;SDS011;16133;49.486;12.176;2023-06-26T10:23:10;7.10;;;5.93;;
29044;SDS011;16133;49.486;12.176;2023-06-26T10:25:37;8.38;;;6.25;;
29044;SDS011;16133;49.486;12.176;2023-06-26T10:28:06;9.48;;;6.32;;
29044;SDS011;16133;49.486;12.176;2023-06-26T10:30:34;9.25;;;6.10;;
29044;SDS011;16133;49.486;12.176;2023-06-26T10:33:02;7.20;;;5.85;;
29044;SDS011;16133;49.486;12.176;2023-06-26T10:35:29;7.82;;;5.70;;
29044;SDS011;16133;49.486;12.176;2023-06-26T10:38:02;8.70;;;6.30;;
29044;SDS011;16133;49.486;12.176;2023-06-26T10:40:44;8.32;;;6.50;;
29044;SDS011;16133;49.486;12.176;2023-06-26T10:43:14;7.13;;;5.35;;
29044;SDS011;16133;49.486;12.176;2023-06-26T10:45:50;9.18;;;7.07;;
29044;SDS011;16133;49.486;12.176;2023-06-26T10:48:20;8.68;;;7.00;;
29044;SDS011;16133;49.486;12.176;2023-06-26T10:50:50;7.18;;;5.90;;
29044;SDS011;16133;49.486;12.176;2023-06-26T10:55:59;8.77;;;6.05;;
29044;SDS011;16133;49.486;12.176;2023-06-26T11:01:19;7.63;;;5.50;;
29044;SDS011;16133;49.486;12.176;2023-06-26T11:06:18;7.30;;;5.68;;
29044;SDS011;16133;49.486;12.176;2023-06-26T11:08:46;9.43;;;6.75;;
29044;SDS011;16133;49.486;12.176;2023-06-26T11:11:13;8.50;;;6.40;;
29044;SDS011;16133;49.486;12.176;2023-06-26T11:13:39;9.15;;;6.43;;
29044;SDS011;16133;49.486;12.176;2023-06-26T11:16:05;9.00;;;5.38;;
29044;SDS011;16133;49.486;12.176;2023-06-26T11:18:31;9.85;;;5.85;;
29044;SDS011;16133;49.486;12.176;2023-06-26T11:21:06;7.68;;;6.18;;
29044;SDS011;16133;49.486;12.176;2023-06-26T11:23:33;7.13;;;5.45;;
29044;SDS011;16133;49.486;12.176;2023-06-26T11:26:16;7.20;;;5.47;;
29044;SDS011;16133;49.486;12.176;2023-06-26T11:28:46;9.40;;;6.07;;
29044;SDS011;16133;49.486;12.176;2023-06-26T11:33:55;6.90;;;5.57;;
29044;SDS011;16133;49.486;12.176;2023-06-26T11:36:25;9.18;;;5.88;;
29044;SDS011;16133;49.486;12.176;2023-06-26T11:38:58;8.00;;;5.95;;
29044;SDS011;16133;49.486;12.176;2023-06-26T11:41:26;7.03;;;5.50;;
29044;SDS011;16133;49.486;12.176;2023-06-26T11:43:53;8.57;;;5.45;;
29044;SDS011;16133;49.486;12.176;2023-06-26T11:46:20;7.63;;;5.95;;
29044;SDS011;16133;49.486;12.176;2023-06-26T11:48:46;11.50;;;6.10;;
29044;SDS011;16133;49.486;12.176;2023-06-26T11:51:17;7.50;;;5.93;;
29044;SDS011;16133;49.486;12.176;2023-06-26T11:53:43;8.23;;;5.72;;
29044;SDS011;16133;49.486;12.176;2023-06-26T11:56:11;9.00;;;6.13;;
29044;SDS011;16133;49.486;12.176;2023-06-26T11:58:57;7.55;;;5.25;;
29044;SDS011;16133;49.486;12.176;2023-06-26T12:01:41;8.27;;;6.25;;
29044;SDS011;16133;49.486;12.176;2023-06-26T12:04:11;6.57;;;5.13;;
29044;SDS011;16133;49.486;12.176;2023-06-26T12:06:39;9.00;;;6.00;;
29044;SDS011;16133;49.486;12.176;2023-06-26T12:09:07;10.13;;;6.30;;
29044;SDS011;16133;49.486;12.176;2023-06-26T12:11:37;10.00;;;5.72;;
29044;SDS011;16133;49.486;12.176;2023-06-26T12:14:06;8.90;;;6.50;;
29044;SDS011;16133;49.486;12.176;2023-06-26T12:16:32;8.05;;;5.88;;
29044;SDS011;16133;49.486;12.176;2023-06-26T12:18:59;7.07;;;5.65;;
29044;SDS011;16133;49.486;12.176;2023-06-26T12:24:05;7.95;;;5.95;;
29044;SDS011;16133;49.486;12.176;2023-06-26T12:26:32;10.98;;;5.28;;
29044;SDS011;16133;49.486;12.176;2023-06-26T12:29:11;7.05;;;5.10;;
29044;SDS011;16133;49.486;12.176;2023-06-26T12:31:41;7.68;;;5.63;;
29044;SDS011;16133;49.486;12.176;2023-06-26T12:34:12;7.97;;;6.20;;
29044;SDS011;16133;49.486;12.176;2023-06-26T12:36:42;7.32;;;5.50;;
29044;SDS011;16133;49.486;12.176;2023-06-26T12:39:09;7.18;;;5.05;;
29044;SDS011;16133;49.486;12.176;2023-06-26T12:41:52;7.15;;;5.50;;
29044;SDS011;16133;49.486;12.176;2023-06-26T12:44:22;7.15;;;5.30;;
29044;SDS011;16133;49.486;12.176;2023-06-26T12:46:54;7.07;;;5.17;;
29044;SDS011;16133;49.486;12.176;2023-06-26T12:49:36;7.70;;;5.15;;
29044;SDS011;16133;49.486;12.176;2023-06-26T12:52:04;7.40;;;5.35;;
29044;SDS011;16133;49.486;12.176;2023-06-26T12:54:30;6.40;;;5.32;;
29044;SDS011;16133;49.486;12.176;2023-06-26T12:56:56;8.50;;;5.65;;
29044;SDS011;16133;49.486;12.176;2023-06-26T12:59:22;8.20;;;5.97;;
29044;SDS011;16133;49.486;12.176;2023-06-26T13:01:48;8.07;;;6.10;;
29044;SDS011;16133;49.486;12.176;2023-06-26T13:04:13;10.48;;;6.13;;
29044;SDS011;16133;49.486;12.176;2023-06-26T13:06:39;6.82;;;5.32;;
29044;SDS011;16133;49.486;12.176;2023-06-26T13:09:04;6.93;;;5.30;;
29044;SDS011;16133;49.486;12.176;2023-06-26T13:11:30;7.85;;;5.55;;
29044;SDS011;16133;49.486;12.176;2023-06-26T13:13:56;7.45;;;5.50;;
29044;SDS011;16133;49.486;12.176;2023-06-26T13:16:21;10.60;;;5.78;;
29044;SDS011;16133;49.486;12.176;2023-06-26T13:18:47;6.85;;;5.50;;
29044;SDS011;16133;49.486;12.176;2023-06-26T13:21:13;7.63;;;5.95;;
29044;SDS011;16133;49.486;12.176;2023-06-26T13:23:39;7.45;;;5.72;;
29044;SDS011;16133;49.486;12.176;2023-06-26T13:26:05;7.47;;;5.90;;
29044;SDS011;16133;49.486;12.176;2023-06-26T13:28:31;9.15;;;5.70;;
29044;SDS011;16133;49.486;12.176;2023-06-26T13:30:56;7.10;;;5.88;;
29044;SDS011;16133;49.486;12.176;2023-06-26T13:33:22;12.05;;;6.38;;
29044;SDS011;16133;49.486;12.176;2023-06-26T13:35:50;14.52;;;6.80;;
29044;SDS011;16133;49.486;12.176;2023-06-26T13:38:16;10.40;;;5.28;;
29044;SDS011;16133;49.486;12.176;2023-06-26T13:40:42;8.05;;;6.20;;
29044;SDS011;16133;49.486;12.176;2023-06-26T13:43:08;8.27;;;5.25;;
29044;SDS011;16133;49.486;12.176;2023-06-26T13:45:33;7.75;;;5.18;;
29044;SDS011;16133;49.486;12.176;2023-06-26T13:47:58;7.60;;;5.07;;
29044;SDS011;16133;49.486;12.176;2023-06-26T13:50:24;7.03;;;4.88;;
29044;SDS011;16133;49.486;12.176;2023-06-26T13:52:49;8.70;;;5.65;;
29044;SDS011;16133;49.486;12.176;2023-06-26T13:55:15;15.48;;;5.57;;
29044;SDS011;16133;49.486;12.176;2023-06-26T13:57:42;9.93;;;5.90;;
29044;SDS011;16133;49.486;12.176;2023-06-26T14:00:08;6.90;;;5.40;;
29044;SDS011;16133;49.486;12.176;2023-06-26T14:02:34;6.88;;;5.53;;
29044;SDS011;16133;49.486;12.176;2023-06-26T14:05:00;10.75;;;6.25;;
29044;SDS011;16133;49.486;12.176;2023-06-26T14:07:25;7.90;;;5.97;;
29044;SDS011;16133;49.486;12.176;2023-06-26T14:09:50;7.78;;;5.47;;
29044;SDS011;16133;49.486;12.176;2023-06-26T14:12:16;8.05;;;5.68;;
29044;SDS011;16133;49.486;12.176;2023-06-26T14:14:41;8.05;;;5.35;;
29044;SDS011;16133;49.486;12.176;2023-06-26T14:17:07;7.78;;;4.80;;
29044;SDS011;16133;49.486;12.176;2023-06-26T14:19:34;7.85;;;5.63;;
29044;SDS011;16133;49.486;12.176;2023-06-26T14:21:59;8.98;;;5.43;;
29044;SDS011;16133;49.486;12.176;2023-06-26T14:24:26;6.78;;;5.25;;
29044;SDS011;16133;49.486;12.176;2023-06-26T14:26:51;6.80;;;5.20;;
29044;SDS011;16133;49.486;12.176;2023-06-26T14:29:17;8.13;;;5.78;;
29044;SDS011;16133;49.486;12.176;2023-06-26T14:31:42;7.05;;;5.47;;
29044;SDS011;16133;49.486;12.176;2023-06-26T14:34:08;8.13;;;5.32;;
29044;SDS011;16133;49.486;12.176;2023-06-26T14:36:34;8.40;;;5.03;;
29044;SDS011;16133;49.486;12.176;2023-06-26T14:39:00;7.28;;;5.68;;
29044;SDS011;16133;49.486;12.176;2023-06-26T14:41:25;10.43;;;6.90;;
29044;SDS011;16133;49.486;12.176;2023-06-26T14:43:50;8.65;;;6.13;;
29044;SDS011;16133;49.486;12.176;2023-06-26T14:46:16;7.60;;;5.75;;
29044;SDS011;16133;49.486;12.176;2023-06-26T14:48:41;7.80;;;5.30;;
29044;SDS011;16133;49.486;12.176;2023-06-26T14:51:07;8.07;;;5.80;;